Mill Gap, Virginia
Current Conditions -  °F | °C
As of 9:35 AM on Thursday 23 Oct 2014 (Local Time) from KHSP Reporting Station
Overcast Overcast  
Wind Chill: 32°   Ceiling: 600
Heat Index: 40°   Visibility: 10mi
Dew Point: 38°   Wind: 17mph
Humidity: 91%   Direction: 310°NW
Pressure: 30.03"   Gusts: 30mph
Location:  38.3937°N, 79.6382°W
Report Text: KHSP 231335Z AUTO 31015G26KT 10SM OVC006 05/03 A3003 RMK AO2 T00460032
Loading
Personal Weather Stations






























Interactive Weather Map
Tropical Storm Tracking
New forecast layout! Learn more

10-Day Weather Forecast

Advertisements
Track Severe Weather on mobile